createdAt,value
2019-01-15T00:00:02.518Z,27.3
2019-01-15T00:00:53.124Z,27.3
2019-01-15T00:01:43.114Z,27.3
2019-01-15T00:02:32.601Z,27.3
2019-01-15T00:03:22.955Z,27.3
2019-01-15T00:04:13.075Z,27.3
2019-01-15T00:05:03.458Z,27.3
2019-01-15T00:05:53.405Z,27.3
2019-01-15T00:06:43.171Z,27.3
2019-01-15T00:07:33.217Z,27.3
2019-01-15T00:08:23.043Z,27.3
2019-01-15T00:09:13.668Z,27.2
2019-01-15T00:10:02.621Z,27.2
2019-01-15T00:10:53.746Z,27.2
2019-01-15T00:11:43.806Z,27.2
2019-01-15T00:12:33.550Z,27.2
2019-01-15T00:13:23.345Z,27.2
2019-01-15T00:14:13.712Z,27.2
2019-01-15T00:15:03.835Z,27.2
2019-01-15T00:15:54.069Z,27.1
2019-01-15T00:16:44.130Z,27.1
2019-01-15T00:17:33.887Z,27.1
2019-01-15T00:18:24.245Z,27.1
2019-01-15T00:19:14.019Z,27.1
2019-01-15T00:20:04.412Z,27.1
2019-01-15T00:20:54.123Z,27.1
2019-01-15T00:21:44.209Z,27.1
2019-01-15T00:22:33.984Z,27.1
2019-01-15T00:23:24.307Z,27.1
2019-01-15T00:24:14.365Z,27.1
2019-01-15T00:25:04.761Z,27.1
2019-01-15T00:25:53.946Z,27
2019-01-15T00:26:44.801Z,27
2019-01-15T00:27:34.924Z,27
2019-01-15T00:28:24.364Z,27
2019-01-15T00:29:15.034Z,27
2019-01-15T00:30:04.224Z,27
2019-01-15T00:30:54.810Z,26.9
2019-01-15T00:31:44.888Z,26.9
2019-01-15T00:32:35.198Z,26.9
2019-01-15T00:33:25.284Z,26.9
2019-01-15T00:34:15.049Z,26.9
2019-01-15T00:35:05.241Z,26.9
2019-01-15T00:35:55.141Z,26.9
2019-01-15T00:36:46.876Z,26.9
2019-01-15T00:37:35.324Z,26.9
2019-01-15T00:38:25.326Z,26.9
2019-01-15T00:39:15.673Z,26.9
2019-01-15T00:40:05.553Z,26.9
2019-01-15T00:40:55.209Z,26.9
2019-01-15T00:41:45.258Z,26.9
2019-01-15T00:42:35.603Z,26.8
2019-01-15T00:43:27.609Z,26.9
2019-01-15T00:44:15.161Z,26.8
2019-01-15T00:45:06.046Z,26.8
2019-01-15T00:45:55.837Z,26.8
2019-01-15T00:46:46.173Z,26.8
2019-01-15T00:47:35.938Z,26.8
2019-01-15T00:48:26.276Z,26.8
2019-01-15T00:49:16.120Z,26.8
2019-01-15T00:50:06.001Z,26.8
2019-01-15T00:50:56.432Z,26.8
2019-01-15T00:51:46.552Z,26.8
2019-01-15T00:52:36.557Z,26.8
2019-01-15T00:53:26.630Z,26.7
2019-01-15T00:54:16.142Z,26.7
2019-01-15T00:55:06.165Z,26.7
2019-01-15T00:55:56.223Z,26.7
2019-01-15T00:56:46.560Z,26.7
2019-01-15T00:57:36.605Z,26.7
2019-01-15T00:58:26.927Z,26.7
2019-01-15T00:59:16.744Z,26.7
2019-01-15T01:00:06.237Z,26.7
2019-01-15T01:00:56.844Z,26.7
2019-01-15T01:01:47.184Z,26.6
2019-01-15T01:02:37.222Z,26.6
2019-01-15T01:03:27.267Z,26.6
2019-01-15T01:04:16.809Z,26.6
2019-01-15T01:05:07.191Z,26.6
2019-01-15T01:05:57.460Z,26.6
2019-01-15T01:06:47.305Z,26.6
2019-01-15T01:07:37.579Z,26.6
2019-01-15T01:08:27.341Z,26.6
2019-01-15T01:09:17.406Z,26.6
2019-01-15T01:10:07.576Z,26.6
2019-01-15T01:10:57.819Z,26.6
2019-01-15T01:11:47.856Z,26.5
2019-01-15T01:12:37.899Z,26.6
2019-01-15T01:13:27.686Z,26.5
2019-01-15T01:14:17.794Z,26.6
2019-01-15T01:15:07.826Z,26.5
2019-01-15T01:15:58.141Z,26.5
2019-01-15T01:16:47.918Z,26.5
2019-01-15T01:17:37.964Z,26.5
2019-01-15T01:18:28.031Z,26.5
2019-01-15T01:19:18.073Z,26.4
2019-01-15T01:20:08.114Z,26.4
2019-01-15T01:20:58.203Z,26.4
2019-01-15T01:21:48.281Z,26.4
2019-01-15T01:22:38.308Z,26.4
2019-01-15T01:23:28.363Z,26.4
2019-01-15T01:24:18.420Z,26.4
2019-01-15T01:25:08.491Z,26.4
2019-01-15T01:25:58.868Z,26.4
2019-01-15T01:26:48.858Z,26.4
2019-01-15T01:27:38.638Z,26.4
2019-01-15T01:28:28.753Z,26.4
2019-01-15T01:29:18.753Z,26.4
2019-01-15T01:30:09.083Z,26.4
2019-01-15T01:30:58.614Z,26.4
2019-01-15T01:31:49.203Z,26.4
2019-01-15T01:32:39.237Z,26.3
2019-01-15T01:33:28.768Z,26.3
2019-01-15T01:34:19.132Z,26.3
2019-01-15T01:35:08.877Z,26.3
2019-01-15T01:35:58.966Z,26.3
2019-01-15T01:36:49.535Z,26.3
2019-01-15T01:37:39.605Z,26.3
2019-01-15T01:38:28.805Z,26.3
2019-01-15T01:39:18.684Z,26.3
2019-01-15T01:40:09.009Z,26.3
2019-01-15T01:40:59.069Z,26.3
2019-01-15T01:41:49.174Z,26.3
2019-01-15T01:42:39.359Z,26.3
2019-01-15T01:43:29.739Z,26.3
2019-01-15T01:44:20.052Z,26.3
2019-01-15T01:45:10.109Z,26.2
2019-01-15T01:45:59.329Z,26.2
2019-01-15T01:46:49.375Z,26.2
2019-01-15T01:47:39.994Z,26.2
2019-01-15T01:48:30.055Z,26.2
2019-01-15T01:49:20.384Z,26.2
2019-01-15T01:50:10.436Z,26.1
2019-01-15T01:51:00.269Z,26.2
2019-01-15T01:51:50.314Z,26.2
2019-01-15T01:52:39.508Z,26.1
2019-01-15T01:53:30.404Z,26.1
2019-01-15T01:54:20.169Z,26.1
2019-01-15T01:55:10.483Z,26.1
2019-01-15T01:56:00.348Z,26.1
2019-01-15T01:56:50.621Z,26.1
2019-01-15T01:57:40.945Z,26.1
2019-01-15T01:58:30.463Z,26.1
2019-01-15T01:59:20.841Z,26.1
2019-01-15T02:00:11.127Z,26.1
2019-01-15T02:01:00.354Z,26.1
2019-01-15T02:01:51.005Z,26.1
2019-01-15T02:02:41.253Z,26.1
2019-01-15T02:03:30.795Z,26.1
2019-01-15T02:04:21.147Z,26.2
2019-01-15T02:05:10.933Z,26.2
2019-01-15T02:06:01.518Z,26.2
2019-01-15T02:06:51.337Z,26.2
2019-01-15T02:07:40.858Z,26.2
2019-01-15T02:08:31.682Z,26.2
2019-01-15T02:09:21.790Z,26.2
2019-01-15T02:10:11.332Z,26.3
2019-01-15T02:11:01.287Z,26.3
2019-01-15T02:11:51.610Z,26.3
2019-01-15T02:12:43.435Z,26.3
2019-01-15T02:13:31.740Z,26.3
2019-01-15T02:14:21.815Z,26.3
2019-01-15T02:15:11.581Z,26.3
2019-01-15T02:16:02.209Z,26.3
2019-01-15T02:16:52.257Z,26.3
2019-01-15T02:17:42.007Z,26.3
2019-01-15T02:18:32.077Z,26.3
2019-01-15T02:19:22.423Z,26.3
2019-01-15T02:20:12.469Z,26.3
2019-01-15T02:21:01.989Z,26.3
2019-01-15T02:21:52.579Z,26.3
2019-01-15T02:22:41.827Z,26.3
2019-01-15T02:23:32.406Z,26.3
2019-01-15T02:24:22.749Z,26.3
2019-01-15T02:25:12.864Z,26.3
2019-01-15T02:26:02.392Z,26.3
2019-01-15T02:26:54.069Z,26.3
2019-01-15T02:27:42.427Z,26.3
2019-01-15T02:28:32.754Z,26.3
2019-01-15T02:29:21.974Z,26.3
2019-01-15T02:30:12.935Z,26.3
2019-01-15T02:31:03.248Z,26.3
2019-01-15T02:31:52.754Z,26.3
2019-01-15T02:32:43.116Z,26.3
2019-01-15T02:33:33.126Z,26.3
2019-01-15T02:34:23.511Z,26.3
2019-01-15T02:35:12.736Z,26.3
2019-01-15T02:36:03.566Z,26.2
2019-01-15T02:36:53.104Z,26.2
2019-01-15T02:37:43.418Z,26.1
2019-01-15T02:38:33.737Z,26.1
2019-01-15T02:39:23.783Z,25.9
2019-01-15T02:40:13.865Z,25.9
2019-01-15T02:41:03.415Z,25.9
2019-01-15T02:41:53.671Z,25.8
2019-01-15T02:42:53.170Z,25.8
2019-01-15T02:43:33.855Z,25.7
2019-01-15T02:44:24.210Z,25.7
2019-01-15T02:45:14.007Z,25.6
2019-01-15T02:46:04.286Z,25.6
2019-01-15T02:46:53.749Z,25.6
2019-01-15T02:47:44.393Z,25.6
2019-01-15T02:48:33.860Z,25.7
2019-01-15T02:49:23.745Z,25.7
2019-01-15T02:50:14.080Z,25.8
2019-01-15T02:51:04.576Z,25.8
2019-01-15T02:51:54.713Z,25.8
2019-01-15T02:52:44.163Z,25.9
2019-01-15T02:53:34.215Z,26
2019-01-15T02:54:24.796Z,26.1
2019-01-15T02:55:14.628Z,26.2
2019-01-15T02:56:04.995Z,26.3
2019-01-15T02:56:55.069Z,26.4
2019-01-15T02:57:44.195Z,26.5
2019-01-15T02:58:34.617Z,26.6
2019-01-15T02:59:24.916Z,26.7
2019-01-15T03:00:14.977Z,26.9
2019-01-15T03:01:05.290Z,27
2019-01-15T03:01:55.023Z,27.1
2019-01-15T03:02:45.099Z,27.3
2019-01-15T03:03:35.139Z,27.4
2019-01-15T03:04:25.204Z,27.5
2019-01-15T03:05:15.247Z,27.6
2019-01-15T03:08:48.474Z,28.1
2019-01-15T03:09:38.431Z,28.3
2019-01-15T03:10:27.943Z,28.4
2019-01-15T03:11:18.037Z,28.6
2019-01-15T03:12:07.828Z,28.6
2019-01-15T03:13:02.029Z,28.8
2019-01-15T03:13:48.393Z,28.9
2019-01-15T03:14:37.908Z,29.1
2019-01-15T03:15:29.406Z,29.1
2019-01-15T03:16:19.336Z,29.3
2019-01-15T03:17:09.383Z,29.4
2019-01-15T03:17:59.556Z,29.5
2019-01-15T03:18:51.123Z,29.6
2019-01-15T03:19:39.308Z,29.8
2019-01-15T03:20:29.363Z,29.9
2019-01-15T03:21:19.684Z,29.9
2019-01-15T03:22:09.738Z,30.1
2019-01-15T03:22:59.623Z,30.2
2019-01-15T03:23:49.838Z,30.3
2019-01-15T03:24:39.355Z,30.4
2019-01-15T03:25:29.732Z,30.6
2019-01-15T03:26:19.527Z,30.7
2019-01-15T03:27:09.557Z,30.8
2019-01-15T03:28:00.126Z,30.9
2019-01-15T03:28:48.858Z,31
2019-01-15T03:29:39.993Z,31.1
2019-01-15T03:30:29.804Z,31.1
2019-01-15T03:31:20.516Z,31.3
2019-01-15T03:32:10.697Z,31.3
2019-01-15T03:33:00.651Z,31.4
2019-01-15T03:33:50.597Z,31.4
2019-01-15T03:34:40.375Z,31.5
2019-01-15T03:35:30.125Z,31.6
2019-01-15T03:36:20.432Z,31.6
2019-01-15T03:37:10.490Z,31.6
2019-01-15T03:38:00.625Z,31.6
2019-01-15T03:38:50.594Z,31.7
2019-01-15T03:39:40.621Z,31.7
2019-01-15T03:40:30.786Z,31.8
2019-01-15T03:41:20.549Z,31.8
2019-01-15T03:42:10.854Z,31.8
2019-01-15T03:43:10.094Z,31.8
2019-01-15T03:43:50.721Z,31.8
2019-01-15T03:44:40.749Z,31.8
2019-01-15T03:45:31.465Z,31.9
2019-01-15T03:46:20.805Z,31.9
2019-01-15T03:47:10.879Z,31.9
2019-01-15T03:48:01.562Z,31.9
2019-01-15T03:48:51.569Z,31.9
2019-01-15T03:49:41.569Z,31.9
2019-01-15T03:50:31.174Z,31.9
2019-01-15T03:51:21.154Z,31.9
2019-01-15T03:52:11.219Z,31.9
2019-01-15T03:53:01.838Z,31.9
2019-01-15T03:53:51.651Z,31.9
2019-01-15T03:54:41.949Z,31.9
2019-01-15T03:55:31.756Z,31.9
2019-01-15T03:56:21.756Z,31.9
2019-01-15T03:57:11.799Z,31.9
2019-01-15T03:58:01.612Z,31.9
2019-01-15T03:58:51.669Z,31.9
2019-01-15T03:59:41.283Z,31.9
2019-01-15T04:00:32.039Z,31.9
2019-01-15T04:01:22.186Z,31.9
2019-01-15T04:02:12.459Z,31.9
2019-01-15T04:03:02.220Z,31.9
2019-01-15T04:03:52.031Z,31.9
2019-01-15T04:04:42.346Z,31.9
2019-01-15T04:05:32.395Z,31.9
2019-01-15T04:06:22.725Z,31.9
2019-01-15T04:07:12.488Z,31.9
2019-01-15T04:08:02.579Z,31.9
2019-01-15T04:08:52.971Z,31.9
2019-01-15T04:09:42.430Z,31.9
2019-01-15T04:10:32.516Z,31.9
2019-01-15T04:11:23.032Z,31.9
2019-01-15T04:12:12.835Z,31.9
2019-01-15T04:13:02.377Z,31.9
2019-01-15T04:13:52.992Z,31.9
2019-01-15T04:14:43.296Z,31.9
2019-01-15T04:15:33.102Z,31.9
2019-01-15T04:16:23.383Z,31.9
2019-01-15T04:17:13.235Z,31.9
2019-01-15T04:18:03.545Z,31.9
2019-01-15T04:18:55.340Z,31.9
2019-01-15T04:19:43.650Z,31.9
2019-01-15T04:20:33.734Z,31.9
2019-01-15T04:21:22.621Z,31.9
2019-01-15T04:22:12.664Z,31.9
2019-01-15T04:23:03.622Z,31.9
2019-01-15T04:23:53.942Z,31.9
2019-01-15T04:24:43.664Z,31.9
2019-01-15T04:25:33.876Z,31.9
2019-01-15T04:26:23.319Z,31.9
2019-01-15T04:27:14.105Z,31.9
2019-01-15T04:28:03.627Z,31.9
2019-01-15T04:28:53.118Z,31.9
2019-01-15T04:29:44.287Z,31.9
2019-01-15T04:30:34.126Z,31.9
2019-01-15T04:31:24.542Z,31.9
2019-01-15T04:32:13.968Z,31.9
2019-01-15T04:33:04.266Z,31.9
2019-01-15T04:33:54.118Z,31.9
2019-01-15T04:34:44.686Z,31.9
2019-01-15T04:35:34.666Z,31.9
2019-01-15T04:36:24.168Z,31.9
2019-01-15T04:37:14.850Z,31.9
2019-01-15T04:38:04.568Z,31.9
2019-01-15T04:38:54.931Z,31.9
2019-01-15T04:39:44.165Z,31.9
2019-01-15T04:40:34.490Z,31.9
2019-01-15T04:41:24.621Z,31.9
2019-01-15T04:42:15.138Z,31.9
2019-01-15T04:43:05.203Z,31.9
2019-01-15T04:43:54.225Z,31.9
2019-01-15T04:44:44.761Z,31.9
2019-01-15T04:45:35.103Z,31.9
2019-01-15T04:46:25.538Z,31.9
2019-01-15T04:47:14.949Z,31.9
2019-01-15T04:48:05.510Z,31.9
2019-01-15T04:48:55.610Z,31.9
2019-01-15T04:49:45.111Z,31.9
2019-01-15T04:50:35.134Z,31.9
2019-01-15T04:51:25.512Z,31.9
2019-01-15T04:52:15.587Z,31.9
2019-01-15T04:53:06.033Z,31.9
2019-01-15T04:53:55.917Z,31.9
2019-01-15T04:54:45.977Z,31.9
2019-01-15T04:55:35.807Z,31.9
2019-01-15T04:56:25.831Z,31.9
2019-01-15T04:57:16.190Z,31.9
2019-01-15T04:58:05.981Z,31.9
2019-01-15T04:58:56.020Z,31.9
2019-01-15T04:59:45.498Z,31.9
2019-01-15T05:00:36.120Z,31.9
2019-01-15T05:01:26.132Z,31.9
2019-01-15T05:02:16.556Z,31.9
2019-01-15T05:03:06.285Z,31.9
2019-01-15T05:03:55.805Z,31.8
2019-01-15T05:04:46.123Z,31.8
2019-01-15T05:05:36.439Z,31.8
2019-01-15T05:06:26.219Z,31.8
2019-01-15T05:07:16.817Z,31.8
2019-01-15T05:08:06.386Z,31.8
2019-01-15T05:08:56.641Z,31.8
2019-01-15T05:09:46.991Z,31.8
2019-01-15T05:10:36.800Z,31.8
2019-01-15T05:11:27.099Z,31.8
2019-01-15T05:12:17.159Z,31.8
2019-01-15T05:13:06.941Z,31.8
2019-01-15T05:13:57.331Z,31.8
2019-01-15T05:14:46.509Z,31.8
2019-01-15T05:15:36.828Z,31.8
2019-01-15T05:16:26.657Z,31.8
2019-01-15T05:17:16.658Z,31.8
2019-01-15T05:18:07.041Z,31.8
2019-01-15T05:18:56.806Z,31.8
2019-01-15T05:19:46.836Z,31.8
2019-01-15T05:20:37.179Z,31.8
2019-01-15T05:21:27.551Z,31.8
2019-01-15T05:22:17.593Z,31.8
2019-01-15T05:23:07.918Z,31.8
2019-01-15T05:23:57.693Z,31.8
2019-01-15T05:24:47.463Z,31.8
2019-01-15T05:25:37.284Z,31.8
2019-01-15T05:26:29.746Z,31.8
2019-01-15T05:27:17.165Z,31.8
2019-01-15T05:28:07.223Z,31.8
2019-01-15T05:28:57.531Z,31.8
2019-01-15T05:29:47.815Z,31.8
2019-01-15T05:30:38.406Z,31.8
2019-01-15T05:31:28.485Z,31.8
2019-01-15T05:32:18.578Z,31.8
2019-01-15T05:33:08.623Z,31.7
2019-01-15T05:33:58.360Z,31.8
2019-01-15T05:34:48.403Z,31.8
2019-01-15T05:35:38.539Z,31.8
2019-01-15T05:36:28.787Z,31.8
2019-01-15T05:37:18.845Z,31.8
2019-01-15T05:38:08.607Z,31.7
2019-01-15T05:38:58.996Z,31.7
2019-01-15T05:39:49.073Z,31.7
2019-01-15T05:40:38.322Z,31.7
2019-01-15T05:41:28.375Z,31.7
2019-01-15T05:42:18.723Z,31.7
2019-01-15T05:43:08.762Z,31.6
2019-01-15T05:43:58.809Z,31.6
2019-01-15T05:44:48.617Z,31.7
2019-01-15T05:45:38.921Z,31.6
2019-01-15T05:46:28.680Z,31.6
2019-01-15T05:47:19.516Z,31.6
2019-01-15T05:48:09.356Z,31.6
2019-01-15T05:48:59.629Z,31.6
2019-01-15T05:49:50.695Z,31.6
2019-01-15T05:50:38.967Z,31.6
2019-01-15T05:51:29.823Z,31.6
2019-01-15T05:52:19.268Z,31.6
2019-01-15T05:53:09.637Z,31.6
2019-01-15T05:53:59.411Z,31.6
2019-01-15T05:54:49.469Z,31.6
2019-01-15T05:55:39.822Z,31.6
2019-01-15T05:56:29.956Z,31.6
2019-01-15T05:57:20.128Z,31.6
2019-01-15T05:58:10.271Z,31.6
2019-01-15T05:58:59.513Z,31.6
2019-01-15T05:59:49.012Z,31.6
2019-01-15T06:00:39.662Z,31.6
2019-01-15T06:01:29.123Z,31.6
2019-01-15T06:02:19.948Z,31.6
2019-01-15T06:03:10.328Z,31.6
2019-01-15T06:04:00.053Z,31.6
2019-01-15T06:04:50.115Z,31.6
2019-01-15T06:06:48.399Z,31.6
2019-01-15T06:07:40.156Z,31.6
2019-01-15T06:08:28.287Z,31.6
2019-01-15T06:09:18.560Z,31.6
2019-01-15T06:10:08.065Z,31.6
2019-01-15T06:10:58.685Z,31.6
2019-01-15T06:11:48.456Z,31.6
2019-01-15T06:12:38.520Z,31.6
2019-01-15T06:13:28.572Z,31.6
2019-01-15T06:14:18.677Z,31.5
2019-01-15T06:15:08.980Z,31.5
2019-01-15T06:15:58.727Z,31.5
2019-01-15T06:16:49.084Z,31.5
2019-01-15T06:17:38.857Z,31.5
2019-01-15T06:18:29.171Z,31.5
2019-01-15T06:19:19.212Z,31.5
2019-01-15T06:20:09.005Z,31.5
2019-01-15T06:20:58.824Z,31.5
2019-01-15T06:21:49.664Z,31.5
2019-01-15T06:22:39.456Z,31.4
2019-01-15T06:23:29.775Z,31.4
2019-01-15T06:24:19.836Z,31.4
2019-01-15T06:25:09.782Z,31.4
2019-01-15T06:25:59.951Z,31.4
2019-01-15T06:26:49.776Z,31.4
2019-01-15T06:27:39.766Z,31.4
2019-01-15T06:28:30.144Z,31.4
2019-01-15T06:29:19.891Z,31.4
2019-01-15T06:30:10.253Z,31.4
2019-01-15T06:30:59.464Z,31.4
2019-01-15T06:31:49.229Z,31.4
2019-01-15T06:32:40.133Z,31.4
2019-01-15T06:33:30.344Z,31.4
2019-01-15T06:34:20.359Z,31.4
2019-01-15T06:35:10.302Z,31.5
2019-01-15T06:36:00.725Z,31.4
2019-01-15T06:36:50.487Z,31.5
2019-01-15T06:37:40.609Z,31.5
2019-01-15T06:38:30.806Z,31.5
2019-01-15T06:39:20.294Z,31.5
2019-01-15T06:40:10.369Z,31.4
2019-01-15T06:41:01.013Z,31.4
2019-01-15T06:41:50.201Z,31.4
2019-01-15T06:42:40.304Z,31.4
2019-01-15T06:43:30.649Z,31.4
2019-01-15T06:44:21.165Z,31.4
2019-01-15T06:45:11.212Z,31.4
2019-01-15T06:46:01.022Z,31.4
2019-01-15T06:46:50.523Z,31.4
2019-01-15T06:47:41.394Z,31.4
2019-01-15T06:48:30.657Z,31.4
2019-01-15T06:49:21.518Z,31.4
2019-01-15T06:50:11.575Z,31.4
2019-01-15T06:51:01.134Z,31.4
2019-01-15T06:51:50.835Z,31.4
2019-01-15T06:52:41.190Z,31.4
2019-01-15T06:53:31.528Z,31.4
2019-01-15T06:54:21.928Z,31.4
2019-01-15T06:55:11.612Z,31.4
2019-01-15T06:56:01.675Z,31.4
2019-01-15T06:56:52.013Z,31.4
2019-01-15T06:57:41.541Z,31.4
2019-01-15T06:58:32.134Z,31.4
2019-01-15T06:59:21.684Z,31.4
2019-01-15T07:00:11.689Z,31.4
2019-01-15T07:01:02.097Z,31.4
2019-01-15T07:01:52.069Z,31.4
2019-01-15T07:02:41.911Z,31.4
2019-01-15T07:03:32.156Z,31.4
2019-01-15T07:04:22.514Z,31.4
2019-01-15T07:06:48.638Z,31.3
2019-01-15T07:07:38.686Z,31.3
2019-01-15T07:08:28.466Z,31.3
2019-01-15T07:09:18.506Z,31.3
2019-01-15T07:10:08.276Z,31.3
2019-01-15T07:10:58.612Z,31.3
2019-01-15T07:11:48.939Z,31.3
2019-01-15T07:12:39.033Z,31.3
2019-01-15T07:13:29.073Z,31.3
2019-01-15T07:14:19.128Z,31.3
2019-01-15T07:15:09.171Z,31.3
2019-01-15T07:15:58.675Z,31.3
2019-01-15T07:16:48.818Z,31.3
2019-01-15T07:17:38.576Z,31.3
2019-01-15T07:18:28.635Z,31.3
2019-01-15T07:19:18.683Z,31.3
2019-01-15T07:20:09.491Z,31.3
2019-01-15T07:21:00.088Z,31.3
2019-01-15T07:21:49.616Z,31.3
2019-01-15T07:22:39.740Z,31.3
2019-01-15T07:23:29.735Z,31.3
2019-01-15T07:24:19.505Z,31.3
2019-01-15T07:25:09.563Z,31.3
2019-01-15T07:25:59.903Z,31.3
2019-01-15T07:26:49.141Z,31.3
2019-01-15T07:27:39.461Z,31.3
2019-01-15T07:28:29.025Z,31.3
2019-01-15T07:29:19.848Z,31.3
2019-01-15T07:30:09.950Z,31.3
2019-01-15T07:30:59.952Z,31.3
2019-01-15T07:31:50.017Z,31.3
2019-01-15T07:32:40.387Z,31.3
2019-01-15T07:33:30.452Z,31.3
2019-01-15T07:34:20.220Z,31.3
2019-01-15T07:35:10.589Z,31.3
2019-01-15T07:36:00.590Z,31.3
2019-01-15T07:36:49.792Z,31.3
2019-01-15T07:37:40.141Z,31.3
2019-01-15T07:38:29.904Z,31.3
2019-01-15T07:39:20.252Z,31.3
2019-01-15T07:40:10.559Z,31.3
2019-01-15T07:41:00.681Z,31.3
2019-01-15T07:41:49.867Z,31.3
2019-01-15T07:42:40.304Z,31.3
2019-01-15T07:43:30.821Z,31.2
2019-01-15T07:44:20.573Z,31.2
2019-01-15T07:45:11.179Z,31.2
2019-01-15T07:46:00.413Z,31.2
2019-01-15T07:46:51.061Z,31.2
2019-01-15T07:47:41.469Z,31.2
2019-01-15T07:48:31.270Z,31.2
2019-01-15T07:49:20.985Z,31.2
2019-01-15T07:50:11.077Z,31.1
2019-01-15T07:51:01.180Z,31.1
2019-01-15T07:51:50.890Z,31.2
2019-01-15T07:52:41.188Z,31.2
2019-01-15T07:53:31.511Z,31.2
2019-01-15T07:54:21.870Z,31.1
2019-01-15T07:55:13.044Z,31.1
2019-01-15T07:56:01.686Z,31.1
2019-01-15T07:56:51.456Z,31.1
2019-01-15T07:57:41.246Z,31.1
2019-01-15T07:58:32.088Z,31.1
2019-01-15T07:59:21.870Z,31.1
2019-01-15T08:00:11.925Z,31.1
2019-01-15T08:01:01.993Z,31.1
2019-01-15T08:01:51.764Z,31.1
2019-01-15T08:02:41.867Z,31.1
2019-01-15T08:03:34.196Z,31.1
2019-01-15T08:04:22.185Z,31.1
2019-01-15T08:05:12.273Z,31.1
2019-01-15T08:06:02.587Z,31.1
2019-01-15T08:06:52.105Z,31.1
2019-01-15T08:07:42.440Z,28.7
2019-01-15T08:08:32.532Z,17.3
2019-01-15T08:09:22.890Z,32.1
2019-01-15T08:10:12.608Z,44.3
2019-01-15T08:11:03.562Z,48.4
2019-01-15T08:11:52.722Z,47.2
2019-01-15T08:12:42.772Z,45.9
2019-01-15T08:13:33.098Z,44.6
2019-01-15T08:14:22.876Z,43.9
2019-01-15T08:15:13.215Z,43.3
2019-01-15T08:16:03.312Z,42.8
2019-01-15T08:16:52.853Z,42.4
2019-01-15T08:17:43.106Z,41.9
2019-01-15T08:18:32.695Z,41.6
2019-01-15T08:19:22.746Z,41.2
2019-01-15T08:20:13.288Z,40.8
2019-01-15T08:21:02.321Z,40.4
2019-01-15T08:21:54.887Z,40.1
2019-01-15T08:22:43.457Z,39.8
2019-01-15T08:23:33.497Z,39.4
2019-01-15T08:24:23.342Z,39.2
2019-01-15T08:25:13.679Z,38.9
2019-01-15T08:26:04.019Z,38.7
2019-01-15T08:26:53.224Z,38.4
2019-01-15T08:27:44.077Z,34.3
2019-01-15T08:28:34.134Z,42.8
2019-01-15T08:29:24.182Z,51.3
2019-01-15T08:30:13.661Z,54.1
2019-01-15T08:31:54.121Z,49.3
2019-01-15T08:32:44.173Z,47.7
2019-01-15T08:33:34.506Z,47.4
2019-01-15T08:34:24.489Z,47.8
2019-01-15T08:35:14.558Z,48.6
2019-01-15T08:36:04.405Z,49.8
2019-01-15T08:36:54.423Z,50.6
2019-01-15T08:37:44.174Z,50.9
2019-01-15T08:38:34.488Z,50.9
2019-01-15T08:39:23.738Z,50.7
2019-01-15T08:40:14.409Z,50.6
2019-01-15T08:41:04.673Z,50.8
2019-01-15T08:41:56.022Z,50.9
2019-01-15T08:42:44.838Z,51.2
2019-01-15T08:43:35.123Z,51.4
2019-01-15T08:44:25.369Z,51.6
2019-01-15T08:45:14.949Z,51.8
2019-01-15T08:46:05.018Z,51.9
2019-01-15T08:47:44.850Z,52.1
2019-01-15T08:48:35.197Z,52.2
2019-01-15T08:49:25.536Z,52.3
2019-01-15T08:50:15.580Z,52.5
2019-01-15T08:51:05.072Z,52.6
2019-01-15T08:51:55.408Z,52.8
2019-01-15T08:52:45.724Z,52.9
2019-01-15T08:53:34.500Z,52.9
2019-01-15T08:54:27.337Z,53
2019-01-15T08:55:15.907Z,53.1
2019-01-15T08:56:05.699Z,53.1
2019-01-15T08:56:55.791Z,53.3
2019-01-15T08:57:45.517Z,53.3
2019-01-15T08:58:35.864Z,53.4
2019-01-15T08:59:25.964Z,53.5
2019-01-15T09:00:15.716Z,53.6
2019-01-15T09:01:06.069Z,53.7
2019-01-15T09:01:56.092Z,53.8
2019-01-15T09:02:46.457Z,53.8
2019-01-15T09:03:36.522Z,53.9
2019-01-15T09:04:26.274Z,53.9
2019-01-15T09:05:16.049Z,54
2019-01-15T09:06:06.136Z,54.1
2019-01-15T09:06:56.774Z,54.2
2019-01-15T09:07:46.476Z,54.3
2019-01-15T09:08:36.547Z,54.3
2019-01-15T09:09:26.299Z,54.3
2019-01-15T09:10:17.012Z,54.3
2019-01-15T09:11:07.176Z,54.4
2019-01-15T09:11:56.346Z,54.5
2019-01-15T09:12:46.346Z,54.6
2019-01-15T09:13:37.163Z,54.7
2019-01-15T09:14:32.903Z,54.8
2019-01-15T09:15:17.413Z,54.8
2019-01-15T09:16:07.100Z,54.8
2019-01-15T09:16:58.253Z,54.9
2019-01-15T09:17:46.947Z,54.9
2019-01-15T09:18:36.948Z,54.9
2019-01-15T09:19:26.805Z,55.1
2019-01-15T09:20:18.149Z,55.1
2019-01-15T09:21:07.193Z,55.2
2019-01-15T09:21:57.106Z,55.3
2019-01-15T09:22:47.320Z,55.3
2019-01-15T09:23:37.855Z,55.3
2019-01-15T09:24:27.881Z,55.4
2019-01-15T09:25:17.554Z,55.4
2019-01-15T09:26:08.193Z,55.5
2019-01-15T09:26:58.058Z,55.6
2019-01-15T09:27:48.125Z,55.6
2019-01-15T09:28:37.615Z,55.7
2019-01-15T09:29:27.464Z,55.7
2019-01-15T09:30:18.361Z,55.8
2019-01-15T09:31:08.332Z,55.8
2019-01-15T09:31:58.418Z,55.8
2019-01-15T09:32:48.227Z,55.9
2019-01-15T09:33:38.514Z,55.9
2019-01-15T09:34:28.020Z,56
2019-01-15T09:35:18.075Z,56.1
2019-01-15T09:36:08.685Z,56.1
2019-01-15T09:36:58.232Z,56.1
2019-01-15T09:37:48.500Z,56.2
2019-01-15T09:38:38.882Z,56.3
2019-01-15T09:39:28.342Z,56.3
2019-01-15T09:40:19.017Z,56.4
2019-01-15T09:41:09.006Z,56.4
2019-01-15T09:41:58.529Z,56.6
2019-01-15T09:42:47.822Z,56.6
2019-01-15T09:43:38.891Z,56.6
2019-01-15T09:44:36.510Z,56.8
2019-01-15T09:45:19.367Z,56.8
2019-01-15T09:46:09.074Z,56.9
2019-01-15T09:46:59.114Z,56.9
2019-01-15T09:47:49.257Z,57
2019-01-15T09:48:39.044Z,57.1
2019-01-15T09:49:29.579Z,57.1
2019-01-15T09:50:21.078Z,57.1
2019-01-15T09:51:09.148Z,57.2
2019-01-15T09:51:59.726Z,57.3
2019-01-15T09:52:49.248Z,57.3
2019-01-15T09:53:39.296Z,57.4
2019-01-15T09:54:29.912Z,57.4
2019-01-15T09:55:19.982Z,57.4
2019-01-15T09:56:09.463Z,57.4
2019-01-15T09:56:59.580Z,57.5
2019-01-15T09:57:49.867Z,57.6
2019-01-15T09:58:39.923Z,57.6
2019-01-15T09:59:29.968Z,57.6
2019-01-15T10:00:20.316Z,57.6
2019-01-15T10:01:10.358Z,57.6
2019-01-15T10:02:00.140Z,57.7
2019-01-15T10:02:49.931Z,57.8
2019-01-15T10:03:40.503Z,57.9
2019-01-15T10:04:30.410Z,57.9
2019-01-15T10:05:20.145Z,57.9
2019-01-15T10:07:48.210Z,58.1
2019-01-15T10:08:38.018Z,58.1
2019-01-15T10:09:28.075Z,58.2
2019-01-15T10:10:17.634Z,58.3
2019-01-15T10:11:07.850Z,58.3
2019-01-15T10:11:58.760Z,58.3
2019-01-15T10:12:48.559Z,58.3
2019-01-15T10:13:38.920Z,58.4
2019-01-15T10:14:28.922Z,58.4
2019-01-15T10:16:09.045Z,58.6
2019-01-15T10:16:59.108Z,58.7
2019-01-15T10:17:48.632Z,58.8
2019-01-15T10:18:39.202Z,58.7
2019-01-15T10:19:28.986Z,58.7
2019-01-15T10:20:19.312Z,58.8
2019-01-15T10:21:09.357Z,58.7
2019-01-15T10:21:59.171Z,58.8
2019-01-15T10:22:49.497Z,58.8
2019-01-15T10:23:39.524Z,58.8
2019-01-15T10:24:29.056Z,58.8
2019-01-15T10:25:19.664Z,58.9
2019-01-15T10:26:09.709Z,58.9
2019-01-15T10:26:59.767Z,58.9
2019-01-15T10:27:49.849Z,59
2019-01-15T10:28:39.651Z,59
2019-01-15T10:29:29.156Z,59.1
2019-01-15T10:30:19.721Z,59.1
2019-01-15T10:31:10.045Z,59.2
2019-01-15T10:32:00.102Z,59.2
2019-01-15T10:32:49.328Z,59.2
2019-01-15T10:33:40.196Z,59.2
2019-01-15T10:34:29.989Z,59.3
2019-01-15T10:35:20.384Z,59.3
2019-01-15T10:36:10.088Z,59.3
2019-01-15T10:36:59.868Z,59.4
2019-01-15T10:37:49.927Z,59.4
2019-01-15T10:38:40.268Z,59.4
2019-01-15T10:39:30.613Z,59.5
2019-01-15T10:40:20.121Z,59.6
2019-01-15T10:41:10.728Z,59.6
2019-01-15T10:42:00.226Z,59.6
2019-01-15T10:42:50.268Z,59.6
2019-01-15T10:43:40.893Z,59.6
2019-01-15T10:44:30.945Z,59.7
2019-01-15T10:45:20.480Z,59.8
2019-01-15T10:46:10.778Z,59.8
2019-01-15T10:47:00.685Z,59.8
2019-01-15T10:47:50.895Z,59.8
2019-01-15T10:48:40.960Z,59.8
2019-01-15T10:49:31.010Z,59.9
2019-01-15T10:50:20.507Z,59.9
2019-01-15T10:51:11.451Z,59.9
2019-01-15T10:52:01.193Z,59.9
2019-01-15T10:52:51.250Z,59.9
2019-01-15T10:53:41.542Z,60
2019-01-15T10:54:31.330Z,60
2019-01-15T10:55:21.377Z,60
2019-01-15T10:56:10.972Z,60.1
2019-01-15T10:57:01.007Z,60.1
2019-01-15T10:57:51.352Z,60.1
2019-01-15T10:58:41.875Z,60.1
2019-01-15T10:59:31.694Z,60.1
2019-01-15T11:00:21.438Z,60.2
2019-01-15T11:01:12.072Z,60.2
2019-01-15T11:02:01.282Z,60.2
2019-01-15T11:02:51.909Z,60.2
2019-01-15T11:03:41.952Z,60.3
2019-01-15T11:04:32.031Z,60.3
2019-01-15T11:05:21.609Z,60.3
2019-01-15T11:06:11.294Z,60.3
2019-01-15T11:07:02.197Z,60.3
2019-01-15T11:07:52.496Z,60.3
2019-01-15T11:08:42.321Z,60.3
2019-01-15T11:09:31.858Z,60.3
2019-01-15T11:10:22.116Z,60.3
2019-01-15T11:11:12.183Z,60.3
2019-01-15T11:12:02.296Z,60.3
2019-01-15T11:12:52.355Z,60.3
2019-01-15T11:13:42.078Z,60.3
2019-01-15T11:14:32.784Z,60.3
2019-01-15T11:15:22.729Z,60.3
2019-01-15T11:16:13.081Z,60.3